sensor_id;sensor_type;location;lat;lon;timestamp;temperature;humidity
56300;DHT22;42209;6.376;-10.782;2022-11-09T00:00:49;22.90;54.70
56300;DHT22;42209;6.376;-10.782;2022-11-09T00:03:17;22.90;54.40
56300;DHT22;42209;6.376;-10.782;2022-11-09T00:05:55;23.00;54.20
56300;DHT22;42209;6.376;-10.782;2022-11-09T00:08:24;23.00;55.50
56300;DHT22;42209;6.376;-10.782;2022-11-09T00:10:53;23.10;58.70
56300;DHT22;42209;6.376;-10.782;2022-11-09T00:13:21;23.20;61.10
56300;DHT22;42209;6.376;-10.782;2022-11-09T00:15:49;23.30;62.90
56300;DHT22;42209;6.376;-10.782;2022-11-09T00:18:18;23.30;64.90
56300;DHT22;42209;6.376;-10.782;2022-11-09T00:20:46;23.40;66.30
56300;DHT22;42209;6.376;-10.782;2022-11-09T00:23:15;23.40;67.00
56300;DHT22;42209;6.376;-10.782;2022-11-09T00:25:44;23.50;68.30
56300;DHT22;42209;6.376;-10.782;2022-11-09T00:28:13;23.50;68.70
56300;DHT22;42209;6.376;-10.782;2022-11-09T00:30:41;23.60;69.40
56300;DHT22;42209;6.376;-10.782;2022-11-09T00:33:09;23.60;69.80
56300;DHT22;42209;6.376;-10.782;2022-11-09T00:35:38;23.60;66.90
56300;DHT22;42209;6.376;-10.782;2022-11-09T00:38:06;23.50;63.20
56300;DHT22;42209;6.376;-10.782;2022-11-09T00:40:34;23.20;60.80
56300;DHT22;42209;6.376;-10.782;2022-11-09T00:43:04;23.20;64.00
56300;DHT22;42209;6.376;-10.782;2022-11-09T00:45:32;23.30;66.60
56300;DHT22;42209;6.376;-10.782;2022-11-09T00:48:01;23.40;68.00
56300;DHT22;42209;6.376;-10.782;2022-11-09T00:50:29;23.50;69.30
56300;DHT22;42209;6.376;-10.782;2022-11-09T00:52:57;23.60;70.50
56300;DHT22;42209;6.376;-10.782;2022-11-09T00:55:26;23.60;71.30
56300;DHT22;42209;6.376;-10.782;2022-11-09T00:57:54;23.60;71.20
56300;DHT22;42209;6.376;-10.782;2022-11-09T01:00:23;23.70;72.10
56300;DHT22;42209;6.376;-10.782;2022-11-09T01:02:52;23.60;67.00
56300;DHT22;42209;6.376;-10.782;2022-11-09T01:05:20;23.40;63.90
56300;DHT22;42209;6.376;-10.782;2022-11-09T01:07:49;23.30;62.40
56300;DHT22;42209;6.376;-10.782;2022-11-09T01:10:17;23.20;60.90
56300;DHT22;42209;6.376;-10.782;2022-11-09T01:12:46;23.10;60.10
56300;DHT22;42209;6.376;-10.782;2022-11-09T01:15:14;23.10;59.30
56300;DHT22;42209;6.376;-10.782;2022-11-09T01:17:42;23.00;58.60
56300;DHT22;42209;6.376;-10.782;2022-11-09T01:20:11;23.00;58.10
56300;DHT22;42209;6.376;-10.782;2022-11-09T01:22:39;22.90;57.40
56300;DHT22;42209;6.376;-10.782;2022-11-09T01:25:08;22.90;57.10
56300;DHT22;42209;6.376;-10.782;2022-11-09T01:27:36;22.90;57.30
56300;DHT22;42209;6.376;-10.782;2022-11-09T01:30:05;22.90;56.30
56300;DHT22;42209;6.376;-10.782;2022-11-09T01:32:34;22.80;55.80
56300;DHT22;42209;6.376;-10.782;2022-11-09T01:35:04;22.80;55.80
56300;DHT22;42209;6.376;-10.782;2022-11-09T01:37:33;22.80;55.40
56300;DHT22;42209;6.376;-10.782;2022-11-09T01:40:01;22.70;54.90
56300;DHT22;42209;6.376;-10.782;2022-11-09T01:42:35;22.70;54.90
56300;DHT22;42209;6.376;-10.782;2022-11-09T01:45:28;22.70;54.20
56300;DHT22;42209;6.376;-10.782;2022-11-09T01:48:17;22.70;54.80
56300;DHT22;42209;6.376;-10.782;2022-11-09T01:50:56;22.80;53.90
56300;DHT22;42209;6.376;-10.782;2022-11-09T01:53:30;22.80;54.70
56300;DHT22;42209;6.376;-10.782;2022-11-09T01:56:02;22.80;53.70
56300;DHT22;42209;6.376;-10.782;2022-11-09T01:58:56;22.90;54.10
56300;DHT22;42209;6.376;-10.782;2022-11-09T02:01:29;22.90;57.30
56300;DHT22;42209;6.376;-10.782;2022-11-09T02:04:10;23.00;59.20
56300;DHT22;42209;6.376;-10.782;2022-11-09T02:06:39;23.20;61.60
56300;DHT22;42209;6.376;-10.782;2022-11-09T02:12:06;23.20;64.90
56300;DHT22;42209;6.376;-10.782;2022-11-09T02:14:35;23.30;66.50
56300;DHT22;42209;6.376;-10.782;2022-11-09T02:17:05;23.40;67.10
56300;DHT22;42209;6.376;-10.782;2022-11-09T02:19:33;23.40;68.20
56300;DHT22;42209;6.376;-10.782;2022-11-09T02:22:03;23.40;68.80
56300;DHT22;42209;6.376;-10.782;2022-11-09T02:24:32;23.50;69.30
56300;DHT22;42209;6.376;-10.782;2022-11-09T02:27:05;23.60;69.50
56300;DHT22;42209;6.376;-10.782;2022-11-09T02:29:39;23.60;66.20
56300;DHT22;42209;6.376;-10.782;2022-11-09T02:32:28;23.40;62.10
56300;DHT22;42209;6.376;-10.782;2022-11-09T02:34:58;23.10;60.80
56300;DHT22;42209;6.376;-10.782;2022-11-09T02:37:30;23.10;64.40
56300;DHT22;42209;6.376;-10.782;2022-11-09T02:40:00;23.20;66.50
56300;DHT22;42209;6.376;-10.782;2022-11-09T02:42:30;23.30;68.40
56300;DHT22;42209;6.376;-10.782;2022-11-09T02:44:59;23.40;69.50
56300;DHT22;42209;6.376;-10.782;2022-11-09T02:47:27;23.50;70.80
56300;DHT22;42209;6.376;-10.782;2022-11-09T02:49:56;23.50;71.50
56300;DHT22;42209;6.376;-10.782;2022-11-09T02:52:25;23.60;70.90
56300;DHT22;42209;6.376;-10.782;2022-11-09T02:54:54;23.60;71.70
56300;DHT22;42209;6.376;-10.782;2022-11-09T02:57:22;23.60;67.50
56300;DHT22;42209;6.376;-10.782;2022-11-09T02:59:51;23.40;64.50
56300;DHT22;42209;6.376;-10.782;2022-11-09T03:02:20;23.30;62.50
56300;DHT22;42209;6.376;-10.782;2022-11-09T03:04:50;23.20;61.20
56300;DHT22;42209;6.376;-10.782;2022-11-09T03:07:19;23.00;60.00
56300;DHT22;42209;6.376;-10.782;2022-11-09T03:09:47;23.00;59.10
56300;DHT22;42209;6.376;-10.782;2022-11-09T03:12:17;23.00;58.20
56300;DHT22;42209;6.376;-10.782;2022-11-09T03:14:45;22.90;57.50
56300;DHT22;42209;6.376;-10.782;2022-11-09T03:17:14;22.90;57.30
56300;DHT22;42209;6.376;-10.782;2022-11-09T03:19:43;22.80;56.90
56300;DHT22;42209;6.376;-10.782;2022-11-09T03:22:12;22.80;56.20
56300;DHT22;42209;6.376;-10.782;2022-11-09T03:24:44;22.80;55.80
56300;DHT22;42209;6.376;-10.782;2022-11-09T03:27:12;22.80;55.50
56300;DHT22;42209;6.376;-10.782;2022-11-09T03:29:41;22.80;55.00
56300;DHT22;42209;6.376;-10.782;2022-11-09T03:32:09;22.80;54.90
56300;DHT22;42209;6.376;-10.782;2022-11-09T03:34:37;22.80;54.60
56300;DHT22;42209;6.376;-10.782;2022-11-09T03:37:06;22.80;55.10
56300;DHT22;42209;6.376;-10.782;2022-11-09T03:39:35;22.80;54.80
56300;DHT22;42209;6.376;-10.782;2022-11-09T03:42:03;22.90;54.50
56300;DHT22;42209;6.376;-10.782;2022-11-09T03:44:31;22.90;55.20
56300;DHT22;42209;6.376;-10.782;2022-11-09T03:46:59;23.00;58.20
56300;DHT22;42209;6.376;-10.782;2022-11-09T03:49:27;23.00;60.20
56300;DHT22;42209;6.376;-10.782;2022-11-09T03:51:56;23.10;62.10
56300;DHT22;42209;6.376;-10.782;2022-11-09T03:54:24;23.20;63.70
56300;DHT22;42209;6.376;-10.782;2022-11-09T03:56:52;23.20;64.90
56300;DHT22;42209;6.376;-10.782;2022-11-09T03:59:20;23.30;66.20
56300;DHT22;42209;6.376;-10.782;2022-11-09T04:01:48;23.30;67.40
56300;DHT22;42209;6.376;-10.782;2022-11-09T04:04:17;23.40;67.70
56300;DHT22;42209;6.376;-10.782;2022-11-09T04:06:45;23.40;68.10
56300;DHT22;42209;6.376;-10.782;2022-11-09T04:09:13;23.50;68.40
56300;DHT22;42209;6.376;-10.782;2022-11-09T04:11:41;23.50;68.20
56300;DHT22;42209;6.376;-10.782;2022-11-09T04:14:10;23.60;66.50
56300;DHT22;42209;6.376;-10.782;2022-11-09T04:16:38;23.40;62.10
56300;DHT22;42209;6.376;-10.782;2022-11-09T04:19:06;23.20;60.70
56300;DHT22;42209;6.376;-10.782;2022-11-09T04:21:34;23.20;62.80
56300;DHT22;42209;6.376;-10.782;2022-11-09T04:24:02;23.30;66.20
56300;DHT22;42209;6.376;-10.782;2022-11-09T04:26:31;23.30;67.90
56300;DHT22;42209;6.376;-10.782;2022-11-09T04:28:59;23.40;69.30
56300;DHT22;42209;6.376;-10.782;2022-11-09T04:31:27;23.40;70.60
56300;DHT22;42209;6.376;-10.782;2022-11-09T04:33:55;23.40;71.20
56300;DHT22;42209;6.376;-10.782;2022-11-09T04:36:23;23.50;71.40
56300;DHT22;42209;6.376;-10.782;2022-11-09T04:38:51;23.60;70.80
56300;DHT22;42209;6.376;-10.782;2022-11-09T04:41:20;23.70;71.00
56300;DHT22;42209;6.376;-10.782;2022-11-09T04:43:48;23.50;65.40
56300;DHT22;42209;6.376;-10.782;2022-11-09T04:46:16;23.30;63.40
56300;DHT22;42209;6.376;-10.782;2022-11-09T04:48:44;23.10;61.20
56300;DHT22;42209;6.376;-10.782;2022-11-09T04:51:13;23.00;60.20
56300;DHT22;42209;6.376;-10.782;2022-11-09T04:53:41;22.90;59.50
56300;DHT22;42209;6.376;-10.782;2022-11-09T04:56:09;22.80;58.70
56300;DHT22;42209;6.376;-10.782;2022-11-09T04:58:38;22.80;57.90
56300;DHT22;42209;6.376;-10.782;2022-11-09T05:01:12;22.70;57.40
56300;DHT22;42209;6.376;-10.782;2022-11-09T05:03:41;22.70;56.80
56300;DHT22;42209;6.376;-10.782;2022-11-09T05:06:09;22.70;56.30
56300;DHT22;42209;6.376;-10.782;2022-11-09T05:08:37;22.70;55.60
56300;DHT22;42209;6.376;-10.782;2022-11-09T05:11:05;22.60;55.30
56300;DHT22;42209;6.376;-10.782;2022-11-09T05:13:34;22.70;54.80
56300;DHT22;42209;6.376;-10.782;2022-11-09T05:16:02;22.60;54.50
56300;DHT22;42209;6.376;-10.782;2022-11-09T05:18:31;22.70;54.90
56300;DHT22;42209;6.376;-10.782;2022-11-09T05:21:00;22.70;54.70
56300;DHT22;42209;6.376;-10.782;2022-11-09T05:23:28;22.70;55.20
56300;DHT22;42209;6.376;-10.782;2022-11-09T05:25:56;22.80;55.40
56300;DHT22;42209;6.376;-10.782;2022-11-09T05:28:24;22.90;57.80
56300;DHT22;42209;6.376;-10.782;2022-11-09T05:30:52;23.00;60.30
56300;DHT22;42209;6.376;-10.782;2022-11-09T05:33:20;23.10;62.50
56300;DHT22;42209;6.376;-10.782;2022-11-09T05:35:49;23.10;63.60
56300;DHT22;42209;6.376;-10.782;2022-11-09T05:38:17;23.20;65.00
56300;DHT22;42209;6.376;-10.782;2022-11-09T05:40:48;23.30;66.40
56300;DHT22;42209;6.376;-10.782;2022-11-09T05:43:16;23.30;67.70
56300;DHT22;42209;6.376;-10.782;2022-11-09T05:45:44;23.30;68.20
56300;DHT22;42209;6.376;-10.782;2022-11-09T05:48:14;23.30;68.90
56300;DHT22;42209;6.376;-10.782;2022-11-09T05:50:44;23.40;69.20
56300;DHT22;42209;6.376;-10.782;2022-11-09T05:53:17;23.40;69.10
56300;DHT22;42209;6.376;-10.782;2022-11-09T05:55:46;23.50;69.30
56300;DHT22;42209;6.376;-10.782;2022-11-09T05:58:14;23.40;64.60
56300;DHT22;42209;6.376;-10.782;2022-11-09T06:00:42;23.20;61.90
56300;DHT22;42209;6.376;-10.782;2022-11-09T06:03:10;23.00;62.50
56300;DHT22;42209;6.376;-10.782;2022-11-09T06:13:58;23.60;66.60
56300;DHT22;42209;6.376;-10.782;2022-11-09T06:16:26;23.70;68.70
56300;DHT22;42209;6.376;-10.782;2022-11-09T06:18:54;23.60;67.00
56300;DHT22;42209;6.376;-10.782;2022-11-09T06:21:22;23.40;63.00
56300;DHT22;42209;6.376;-10.782;2022-11-09T06:23:50;23.00;60.50
56300;DHT22;42209;6.376;-10.782;2022-11-09T06:29:13;23.10;65.90
56300;DHT22;42209;6.376;-10.782;2022-11-09T06:31:41;23.30;68.30
56300;DHT22;42209;6.376;-10.782;2022-11-09T06:34:09;23.30;69.30
56300;DHT22;42209;6.376;-10.782;2022-11-09T06:36:37;23.40;71.40
56300;DHT22;42209;6.376;-10.782;2022-11-09T06:39:06;23.40;72.20
56300;DHT22;42209;6.376;-10.782;2022-11-09T06:41:34;23.40;73.40
56300;DHT22;42209;6.376;-10.782;2022-11-09T06:44:02;23.40;74.10
56300;DHT22;42209;6.376;-10.782;2022-11-09T06:46:33;23.40;74.40
56300;DHT22;42209;6.376;-10.782;2022-11-09T06:49:01;23.60;74.60
56300;DHT22;42209;6.376;-10.782;2022-11-09T06:51:30;23.60;74.30
56300;DHT22;42209;6.376;-10.782;2022-11-09T06:53:58;23.60;68.90
56300;DHT22;42209;6.376;-10.782;2022-11-09T06:56:26;23.30;65.50
56300;DHT22;42209;6.376;-10.782;2022-11-09T06:58:54;23.10;63.40
56300;DHT22;42209;6.376;-10.782;2022-11-09T07:01:27;23.10;65.90
56300;DHT22;42209;6.376;-10.782;2022-11-09T07:03:55;23.20;69.40
56300;DHT22;42209;6.376;-10.782;2022-11-09T07:06:24;23.30;70.80
56300;DHT22;42209;6.376;-10.782;2022-11-09T07:08:55;23.40;72.50
56300;DHT22;42209;6.376;-10.782;2022-11-09T07:11:23;23.40;73.80
56300;DHT22;42209;6.376;-10.782;2022-11-09T07:13:52;23.50;74.70
56300;DHT22;42209;6.376;-10.782;2022-11-09T07:16:24;23.50;75.60
56300;DHT22;42209;6.376;-10.782;2022-11-09T07:18:52;23.50;76.20
56300;DHT22;42209;6.376;-10.782;2022-11-09T07:21:20;23.60;76.50
56300;DHT22;42209;6.376;-10.782;2022-11-09T07:23:49;23.60;76.30
56300;DHT22;42209;6.376;-10.782;2022-11-09T07:26:17;23.70;73.40
56300;DHT22;42209;6.376;-10.782;2022-11-09T07:28:45;23.40;68.30
56300;DHT22;42209;6.376;-10.782;2022-11-09T07:31:14;23.20;65.90
56300;DHT22;42209;6.376;-10.782;2022-11-09T07:33:42;23.10;64.20
56300;DHT22;42209;6.376;-10.782;2022-11-09T07:36:10;23.10;66.40
56300;DHT22;42209;6.376;-10.782;2022-11-09T07:38:46;23.20;70.10
56300;DHT22;42209;6.376;-10.782;2022-11-09T07:41:14;23.40;71.90
56300;DHT22;42209;6.376;-10.782;2022-11-09T07:43:42;23.40;73.50
56300;DHT22;42209;6.376;-10.782;2022-11-09T07:46:12;23.50;74.70
56300;DHT22;42209;6.376;-10.782;2022-11-09T07:48:40;23.50;75.40
56300;DHT22;42209;6.376;-10.782;2022-11-09T07:51:08;23.50;76.40
56300;DHT22;42209;6.376;-10.782;2022-11-09T07:53:37;23.60;76.50
56300;DHT22;42209;6.376;-10.782;2022-11-09T07:56:05;23.60;77.20
56300;DHT22;42209;6.376;-10.782;2022-11-09T07:58:33;23.70;77.30
56300;DHT22;42209;6.376;-10.782;2022-11-09T08:01:06;23.70;74.70
56300;DHT22;42209;6.376;-10.782;2022-11-09T08:03:35;23.50;69.30
56300;DHT22;42209;6.376;-10.782;2022-11-09T08:06:03;23.30;66.30
56300;DHT22;42209;6.376;-10.782;2022-11-09T08:08:32;23.10;64.70
56300;DHT22;42209;6.376;-10.782;2022-11-09T08:11:00;23.00;63.80
56300;DHT22;42209;6.376;-10.782;2022-11-09T08:13:28;22.90;63.10
56300;DHT22;42209;6.376;-10.782;2022-11-09T08:15:59;22.90;62.70
56300;DHT22;42209;6.376;-10.782;2022-11-09T08:18:27;22.90;62.30
56300;DHT22;42209;6.376;-10.782;2022-11-09T08:20:56;22.90;61.70
56300;DHT22;42209;6.376;-10.782;2022-11-09T08:23:24;22.80;61.30
56300;DHT22;42209;6.376;-10.782;2022-11-09T08:25:52;22.90;60.80
56300;DHT22;42209;6.376;-10.782;2022-11-09T08:28:21;22.80;60.10
56300;DHT22;42209;6.376;-10.782;2022-11-09T08:30:58;22.80;59.60
56300;DHT22;42209;6.376;-10.782;2022-11-09T08:33:28;22.80;59.30
56300;DHT22;42209;6.376;-10.782;2022-11-09T08:35:57;22.80;59.00
56300;DHT22;42209;6.376;-10.782;2022-11-09T08:38:25;22.70;57.80
56300;DHT22;42209;6.376;-10.782;2022-11-09T08:40:57;22.70;57.60
56300;DHT22;42209;6.376;-10.782;2022-11-09T08:43:25;22.60;57.10
56300;DHT22;42209;6.376;-10.782;2022-11-09T08:45:54;22.60;56.70
56300;DHT22;42209;6.376;-10.782;2022-11-09T08:48:22;22.60;57.40
56300;DHT22;42209;6.376;-10.782;2022-11-09T08:50:56;22.60;57.00
56300;DHT22;42209;6.376;-10.782;2022-11-09T08:53:26;22.60;56.70
56300;DHT22;42209;6.376;-10.782;2022-11-09T08:55:56;22.60;56.60
56300;DHT22;42209;6.376;-10.782;2022-11-09T08:58:24;22.70;56.20
56300;DHT22;42209;6.376;-10.782;2022-11-09T09:00:52;22.60;55.80
56300;DHT22;42209;6.376;-10.782;2022-11-09T09:03:21;22.50;54.70
56300;DHT22;42209;6.376;-10.782;2022-11-09T09:05:49;22.50;54.70
56300;DHT22;42209;6.376;-10.782;2022-11-09T09:08:17;22.50;54.40
56300;DHT22;42209;6.376;-10.782;2022-11-09T09:10:47;22.50;54.80
56300;DHT22;42209;6.376;-10.782;2022-11-09T09:13:16;22.50;54.60
56300;DHT22;42209;6.376;-10.782;2022-11-09T09:15:44;22.50;55.00
56300;DHT22;42209;6.376;-10.782;2022-11-09T09:18:12;22.50;54.60
56300;DHT22;42209;6.376;-10.782;2022-11-09T09:20:40;22.50;54.30
56300;DHT22;42209;6.376;-10.782;2022-11-09T09:23:08;22.40;54.10
56300;DHT22;42209;6.376;-10.782;2022-11-09T09:25:37;22.40;53.90
56300;DHT22;42209;6.376;-10.782;2022-11-09T09:28:05;22.40;53.20
56300;DHT22;42209;6.376;-10.782;2022-11-09T09:30:33;22.40;54.20
56300;DHT22;42209;6.376;-10.782;2022-11-09T09:33:02;22.60;58.00
56300;DHT22;42209;6.376;-10.782;2022-11-09T09:35:30;22.70;60.90
56300;DHT22;42209;6.376;-10.782;2022-11-09T09:37:58;22.90;63.10
56300;DHT22;42209;6.376;-10.782;2022-11-09T09:40:34;23.00;64.90
56300;DHT22;42209;6.376;-10.782;2022-11-09T09:43:03;23.00;66.90
56300;DHT22;42209;6.376;-10.782;2022-11-09T09:45:33;23.10;67.20
56300;DHT22;42209;6.376;-10.782;2022-11-09T09:48:25;23.10;68.40
56300;DHT22;42209;6.376;-10.782;2022-11-09T09:51:01;23.20;70.00
56300;DHT22;42209;6.376;-10.782;2022-11-09T09:53:53;23.20;71.20
56300;DHT22;42209;6.376;-10.782;2022-11-09T09:56:35;23.30;71.90
56300;DHT22;42209;6.376;-10.782;2022-11-09T09:59:14;23.40;72.20
56300;DHT22;42209;6.376;-10.782;2022-11-09T10:01:46;23.40;68.90
56300;DHT22;42209;6.376;-10.782;2022-11-09T10:04:17;23.20;64.70
56300;DHT22;42209;6.376;-10.782;2022-11-09T10:15:54;22.80;59.70
56300;DHT22;42209;6.376;-10.782;2022-11-09T10:18:29;22.80;59.20
56300;DHT22;42209;6.376;-10.782;2022-11-09T10:26:46;22.70;57.10
56300;DHT22;42209;6.376;-10.782;2022-11-09T10:29:31;22.70;56.70
56300;DHT22;42209;6.376;-10.782;2022-11-09T10:32:19;22.60;56.50
56300;DHT22;42209;6.376;-10.782;2022-11-09T10:34:59;22.60;56.80
56300;DHT22;42209;6.376;-10.782;2022-11-09T10:37:38;22.70;57.60
56300;DHT22;42209;6.376;-10.782;2022-11-09T10:43:30;22.60;57.20
56300;DHT22;42209;6.376;-10.782;2022-11-09T10:46:17;22.70;57.30
56300;DHT22;42209;6.376;-10.782;2022-11-09T10:49:19;22.60;57.00
56300;DHT22;42209;6.376;-10.782;2022-11-09T10:52:33;22.60;57.10
56300;DHT22;42209;6.376;-10.782;2022-11-09T10:55:27;22.60;56.50
56300;DHT22;42209;6.376;-10.782;2022-11-09T11:04:22;22.60;56.20
56300;DHT22;42209;6.376;-10.782;2022-11-09T11:07:13;22.50;56.00
56300;DHT22;42209;6.376;-10.782;2022-11-09T11:10:23;22.50;56.50
56300;DHT22;42209;6.376;-10.782;2022-11-09T11:15:58;22.60;56.60
56300;DHT22;42209;6.376;-10.782;2022-11-09T11:18:45;22.50;56.30
56300;DHT22;42209;6.376;-10.782;2022-11-09T11:21:32;22.60;56.10
56300;DHT22;42209;6.376;-10.782;2022-11-09T11:24:19;22.60;56.10
56300;DHT22;42209;6.376;-10.782;2022-11-09T11:27:17;22.60;56.60
56300;DHT22;42209;6.376;-10.782;2022-11-09T11:30:12;22.60;56.00
56300;DHT22;42209;6.376;-10.782;2022-11-09T11:32:59;22.60;56.70
56300;DHT22;42209;6.376;-10.782;2022-11-09T11:38:55;22.60;55.90
56300;DHT22;42209;6.376;-10.782;2022-11-09T11:45:02;22.60;56.00
56300;DHT22;42209;6.376;-10.782;2022-11-09T11:51:06;22.60;56.30
56300;DHT22;42209;6.376;-10.782;2022-11-09T12:00:59;22.60;55.50
56300;DHT22;42209;6.376;-10.782;2022-11-09T12:10:41;22.60;55.60
56300;DHT22;42209;6.376;-10.782;2022-11-09T12:13:38;22.60;55.90
56300;DHT22;42209;6.376;-10.782;2022-11-09T12:16:44;22.70;56.80
56300;DHT22;42209;6.376;-10.782;2022-11-09T12:25:43;22.90;60.00
56300;DHT22;42209;6.376;-10.782;2022-11-09T12:28:41;23.00;63.10
56300;DHT22;42209;6.376;-10.782;2022-11-09T12:34:43;23.20;67.50
56300;DHT22;42209;6.376;-10.782;2022-11-09T12:37:36;23.30;70.30
56300;DHT22;42209;6.376;-10.782;2022-11-09T12:40:29;23.30;71.60
56300;DHT22;42209;6.376;-10.782;2022-11-09T12:46:04;23.40;74.00
56300;DHT22;42209;6.376;-10.782;2022-11-09T12:48:51;23.50;75.30
56300;DHT22;42209;6.376;-10.782;2022-11-09T12:51:38;23.60;75.40
56300;DHT22;42209;6.376;-10.782;2022-11-09T12:54:25;23.40;68.80
56300;DHT22;42209;6.376;-10.782;2022-11-09T12:57:27;23.20;65.60
56300;DHT22;42209;6.376;-10.782;2022-11-09T13:03:30;23.30;71.80
56300;DHT22;42209;6.376;-10.782;2022-11-09T13:06:18;23.50;72.90
56300;DHT22;42209;6.376;-10.782;2022-11-09T13:09:21;23.60;75.80
56300;DHT22;42209;6.376;-10.782;2022-11-09T13:12:29;23.60;76.20
56300;DHT22;42209;6.376;-10.782;2022-11-09T13:15:25;23.60;76.50
56300;DHT22;42209;6.376;-10.782;2022-11-09T13:24:49;23.40;67.90
56300;DHT22;42209;6.376;-10.782;2022-11-09T13:27:42;23.30;66.10
56300;DHT22;42209;6.376;-10.782;2022-11-09T13:30:38;23.20;65.00
56300;DHT22;42209;6.376;-10.782;2022-11-09T13:33:27;23.20;64.30
56300;DHT22;42209;6.376;-10.782;2022-11-09T13:36:16;23.20;63.70
56300;DHT22;42209;6.376;-10.782;2022-11-09T13:39:32;23.10;62.40
56300;DHT22;42209;6.376;-10.782;2022-11-09T13:42:34;23.10;61.60
56300;DHT22;42209;6.376;-10.782;2022-11-09T13:45:25;23.00;60.10
56300;DHT22;42209;6.376;-10.782;2022-11-09T13:48:32;23.00;60.10
56300;DHT22;42209;6.376;-10.782;2022-11-09T13:54:35;23.00;59.70
56300;DHT22;42209;6.376;-10.782;2022-11-09T13:57:23;23.00;59.50
56300;DHT22;42209;6.376;-10.782;2022-11-09T14:00:20;23.00;59.90
56300;DHT22;42209;6.376;-10.782;2022-11-09T14:03:23;23.10;59.40
56300;DHT22;42209;6.376;-10.782;2022-11-09T14:06:11;23.00;58.80
56300;DHT22;42209;6.376;-10.782;2022-11-09T14:08:58;23.00;58.30
56300;DHT22;42209;6.376;-10.782;2022-11-09T14:12:07;22.90;58.00
56300;DHT22;42209;6.376;-10.782;2022-11-09T14:18:12;23.00;58.10
56300;DHT22;42209;6.376;-10.782;2022-11-09T14:21:26;23.00;58.00
56300;DHT22;42209;6.376;-10.782;2022-11-09T14:24:28;23.10;57.80
56300;DHT22;42209;6.376;-10.782;2022-11-09T14:27:18;23.00;57.40
56300;DHT22;42209;6.376;-10.782;2022-11-09T14:30:21;23.00;57.00
56300;DHT22;42209;6.376;-10.782;2022-11-09T14:33:34;23.00;57.40
56300;DHT22;42209;6.376;-10.782;2022-11-09T14:36:20;23.00;57.40
56300;DHT22;42209;6.376;-10.782;2022-11-09T14:39:23;23.10;57.60
56300;DHT22;42209;6.376;-10.782;2022-11-09T14:42:18;23.00;57.30
56300;DHT22;42209;6.376;-10.782;2022-11-09T14:45:11;23.00;56.80
56300;DHT22;42209;6.376;-10.782;2022-11-09T14:47:59;23.00;56.70
56300;DHT22;42209;6.376;-10.782;2022-11-09T14:50:46;23.00;56.60
56300;DHT22;42209;6.376;-10.782;2022-11-09T14:53:40;23.00;56.90
56300;DHT22;42209;6.376;-10.782;2022-11-09T14:56:28;23.10;56.80
56300;DHT22;42209;6.376;-10.782;2022-11-09T14:59:25;23.00;56.90
56300;DHT22;42209;6.376;-10.782;2022-11-09T15:02:18;23.00;56.00
56300;DHT22;42209;6.376;-10.782;2022-11-09T15:05:06;23.00;56.50
56300;DHT22;42209;6.376;-10.782;2022-11-09T15:07:53;23.00;56.50
56300;DHT22;42209;6.376;-10.782;2022-11-09T15:10:39;23.00;56.20
56300;DHT22;42209;6.376;-10.782;2022-11-09T15:13:30;23.00;56.50
56300;DHT22;42209;6.376;-10.782;2022-11-09T15:16:25;23.00;55.80
56300;DHT22;42209;6.376;-10.782;2022-11-09T15:19:47;22.90;55.60
56300;DHT22;42209;6.376;-10.782;2022-11-09T15:23:01;22.90;55.60
56300;DHT22;42209;6.376;-10.782;2022-11-09T15:28:43;23.00;56.20
56300;DHT22;42209;6.376;-10.782;2022-11-09T15:36:21;23.30;57.50
56300;DHT22;42209;6.376;-10.782;2022-11-09T15:39:16;23.40;61.70
56300;DHT22;42209;6.376;-10.782;2022-11-09T15:42:03;23.30;59.00
56300;DHT22;42209;6.376;-10.782;2022-11-09T15:44:55;23.20;57.20
56300;DHT22;42209;6.376;-10.782;2022-11-09T15:47:53;23.10;56.60
56300;DHT22;42209;6.376;-10.782;2022-11-09T15:50:40;23.10;56.80
56300;DHT22;42209;6.376;-10.782;2022-11-09T15:53:27;23.10;56.70
56300;DHT22;42209;6.376;-10.782;2022-11-09T15:56:19;23.10;57.60
56300;DHT22;42209;6.376;-10.782;2022-11-09T15:59:19;23.10;57.40
56300;DHT22;42209;6.376;-10.782;2022-11-09T16:02:09;23.10;56.90
56300;DHT22;42209;6.376;-10.782;2022-11-09T16:04:56;23.10;56.30
56300;DHT22;42209;6.376;-10.782;2022-11-09T16:07:50;23.10;55.20
56300;DHT22;42209;6.376;-10.782;2022-11-09T16:10:38;23.10;55.90
56300;DHT22;42209;6.376;-10.782;2022-11-09T16:13:25;23.10;55.90
56300;DHT22;42209;6.376;-10.782;2022-11-09T16:16:14;23.30;57.00
56300;DHT22;42209;6.376;-10.782;2022-11-09T16:19:00;23.30;57.20
56300;DHT22;42209;6.376;-10.782;2022-11-09T16:21:47;23.30;57.00
56300;DHT22;42209;6.376;-10.782;2022-11-09T16:24:33;23.30;57.10
56300;DHT22;42209;6.376;-10.782;2022-11-09T16:27:21;23.30;60.40
56300;DHT22;42209;6.376;-10.782;2022-11-09T16:30:27;23.40;62.70
56300;DHT22;42209;6.376;-10.782;2022-11-09T16:33:14;23.60;64.40
56300;DHT22;42209;6.376;-10.782;2022-11-09T16:36:03;23.50;60.30
56300;DHT22;42209;6.376;-10.782;2022-11-09T16:38:52;23.40;58.60
56300;DHT22;42209;6.376;-10.782;2022-11-09T16:41:40;23.40;61.90
56300;DHT22;42209;6.376;-10.782;2022-11-09T16:44:32;23.60;64.40
56300;DHT22;42209;6.376;-10.782;2022-11-09T16:47:19;23.60;64.60
56300;DHT22;42209;6.376;-10.782;2022-11-09T16:50:06;23.50;60.60
56300;DHT22;42209;6.376;-10.782;2022-11-09T16:52:53;23.40;58.80
56300;DHT22;42209;6.376;-10.782;2022-11-09T16:55:40;23.30;57.40
56300;DHT22;42209;6.376;-10.782;2022-11-09T16:58:26;23.30;56.90
56300;DHT22;42209;6.376;-10.782;2022-11-09T17:01:12;23.30;56.90
56300;DHT22;42209;6.376;-10.782;2022-11-09T17:04:07;23.30;56.90
56300;DHT22;42209;6.376;-10.782;2022-11-09T17:06:53;23.30;57.10
56300;DHT22;42209;6.376;-10.782;2022-11-09T17:09:40;23.30;56.80
56300;DHT22;42209;6.376;-10.782;2022-11-09T17:12:29;23.30;57.40
56300;DHT22;42209;6.376;-10.782;2022-11-09T17:15:15;23.30;57.40
56300;DHT22;42209;6.376;-10.782;2022-11-09T17:18:02;23.30;57.50
56300;DHT22;42209;6.376;-10.782;2022-11-09T17:20:49;23.30;56.90
56300;DHT22;42209;6.376;-10.782;2022-11-09T17:23:37;23.30;55.60
56300;DHT22;42209;6.376;-10.782;2022-11-09T17:26:24;23.20;55.40
56300;DHT22;42209;6.376;-10.782;2022-11-09T17:29:11;23.20;55.50
56300;DHT22;42209;6.376;-10.782;2022-11-09T17:31:57;23.20;55.50
56300;DHT22;42209;6.376;-10.782;2022-11-09T17:34:44;23.20;55.50
56300;DHT22;42209;6.376;-10.782;2022-11-09T17:37:31;23.20;55.50
56300;DHT22;42209;6.376;-10.782;2022-11-09T17:40:18;23.20;55.00
56300;DHT22;42209;6.376;-10.782;2022-11-09T17:43:05;23.20;54.50
56300;DHT22;42209;6.376;-10.782;2022-11-09T17:45:51;23.10;54.40
56300;DHT22;42209;6.376;-10.782;2022-11-09T17:48:39;23.10;54.50
56300;DHT22;42209;6.376;-10.782;2022-11-09T17:51:26;23.10;54.50
56300;DHT22;42209;6.376;-10.782;2022-11-09T17:54:12;23.20;54.50
56300;DHT22;42209;6.376;-10.782;2022-11-09T17:56:58;23.20;54.50
56300;DHT22;42209;6.376;-10.782;2022-11-09T17:59:45;23.20;53.80